createdAt,value
2019-02-06T00:01:01.743Z,45.58
2019-02-06T00:03:30.225Z,32.70
2019-02-06T00:05:59.199Z,41.28
2019-02-06T00:08:27.964Z,41.80
2019-02-06T00:10:56.515Z,36.38
2019-02-06T00:13:24.989Z,42.15
2019-02-06T00:15:53.862Z,41.30
2019-02-06T00:18:22.649Z,35.45
2019-02-06T00:20:51.167Z,34.15
2019-02-06T00:23:19.606Z,35.95
2019-02-06T00:25:48.165Z,32.03
2019-02-06T00:28:16.653Z,29.42
2019-02-06T00:30:45.266Z,32.30
2019-02-06T00:33:13.726Z,30.37
2019-02-06T00:35:42.129Z,22.32
2019-02-06T00:38:10.569Z,31.15
2019-02-06T00:40:39.299Z,20.90
2019-02-06T00:43:07.710Z,30.35
2019-02-06T00:45:36.553Z,38.98
2019-02-06T00:48:05.338Z,30.25
2019-02-06T00:50:34.035Z,31.27
2019-02-06T00:53:02.439Z,31.70
2019-02-06T00:55:30.893Z,27.10
2019-02-06T00:57:59.326Z,40.55
2019-02-06T01:00:27.835Z,33.38
2019-02-06T01:02:56.523Z,31.15
2019-02-06T01:05:25.045Z,29.37
2019-02-06T01:07:53.717Z,32.78
2019-02-06T01:10:22.396Z,35.73
2019-02-06T01:12:50.874Z,36.75
2019-02-06T01:15:19.411Z,37.08
2019-02-06T01:17:47.818Z,24.20
2019-02-06T01:20:19.932Z,33.48
2019-02-06T01:22:48.340Z,34.67
2019-02-06T01:25:17.312Z,31.62
2019-02-06T01:27:45.798Z,28.32
2019-02-06T01:30:22.734Z,28.27
2019-02-06T01:32:51.216Z,25.92
2019-02-06T01:35:19.620Z,24.67
2019-02-06T01:37:48.045Z,26.17
2019-02-06T01:40:21.145Z,27.85
2019-02-06T01:42:49.654Z,28.30
2019-02-06T01:45:19.732Z,38.10
2019-02-06T01:47:48.157Z,26.50
2019-02-06T01:50:18.377Z,35.80
2019-02-06T01:52:46.961Z,31.23
2019-02-06T01:55:16.130Z,32.05
2019-02-06T01:57:44.646Z,24.32
2019-02-06T02:00:19.121Z,28.85
2019-02-06T02:02:47.581Z,30.57
2019-02-06T02:05:19.136Z,27.80
2019-02-06T02:07:48.505Z,34.45
2019-02-06T02:10:18.086Z,32.90
2019-02-06T02:12:46.926Z,29.52
2019-02-06T02:15:17.477Z,32.48
2019-02-06T02:17:45.931Z,35.90
2019-02-06T02:20:19.794Z,34.50
2019-02-06T02:22:48.357Z,27.32
2019-02-06T02:25:16.863Z,27.75
2019-02-06T02:27:45.443Z,27.32
2019-02-06T02:30:20.990Z,30.40
2019-02-06T02:32:49.960Z,30.82
2019-02-06T02:35:18.469Z,33.85
2019-02-06T02:37:46.979Z,34.08
2019-02-06T02:40:16.308Z,29.85
2019-02-06T02:42:44.916Z,33.85
2019-02-06T02:45:15.802Z,27.48
2019-02-06T02:47:44.646Z,30.95
2019-02-06T02:50:13.650Z,28.77
2019-02-06T02:52:42.158Z,37.10
2019-02-06T02:55:13.131Z,38.45
2019-02-06T02:57:41.755Z,29.65
2019-02-06T03:00:21.793Z,35.92
2019-02-06T03:02:57.800Z,34.80
2019-02-06T03:05:27.532Z,40.88
2019-02-06T03:07:55.964Z,31.20
2019-02-06T03:10:24.474Z,30.25
2019-02-06T03:12:53.218Z,31.10
2019-02-06T03:15:22.021Z,34.27
2019-02-06T03:17:50.437Z,32.58
2019-02-06T03:20:19.053Z,25.50
2019-02-06T03:22:47.531Z,26.42
2019-02-06T03:25:16.126Z,32.78
2019-02-06T03:27:44.609Z,26.93
2019-02-06T03:30:18.273Z,32.35
2019-02-06T03:32:46.868Z,29.45
2019-02-06T03:35:15.513Z,26.00
2019-02-06T03:37:43.970Z,28.25
2019-02-06T03:40:17.758Z,29.40
2019-02-06T03:42:49.023Z,27.15
2019-02-06T03:45:17.851Z,29.95
2019-02-06T03:47:46.299Z,30.70
2019-02-06T03:50:17.746Z,35.75
2019-02-06T03:52:46.151Z,30.30
2019-02-06T03:55:14.965Z,27.58
2019-02-06T03:57:43.509Z,26.65
2019-02-06T04:00:17.162Z,29.60
2019-02-06T04:02:45.569Z,31.62
2019-02-06T04:05:14.468Z,37.58
2019-02-06T04:07:43.117Z,26.02
2019-02-06T04:10:19.783Z,28.55
2019-02-06T04:12:48.385Z,30.52
2019-02-06T04:15:17.653Z,28.73
2019-02-06T04:17:46.126Z,22.58
2019-02-06T04:20:15.997Z,34.30
2019-02-06T04:22:44.509Z,32.45
2019-02-06T04:25:14.552Z,28.83
2019-02-06T04:27:42.974Z,31.02
2019-02-06T04:30:16.829Z,28.25
2019-02-06T04:32:45.316Z,28.20
2019-02-06T04:35:15.316Z,28.83
2019-02-06T04:37:43.824Z,26.95
2019-02-06T04:40:19.868Z,29.50
2019-02-06T04:42:48.769Z,28.65
2019-02-06T04:45:19.038Z,28.27
2019-02-06T04:47:47.583Z,27.00
2019-02-06T04:50:17.434Z,31.62
2019-02-06T04:52:45.889Z,33.02
2019-02-06T04:55:16.218Z,28.20
2019-02-06T04:57:45.110Z,30.55
2019-02-06T05:00:26.927Z,29.27
2019-02-06T05:02:55.669Z,33.50
2019-02-06T05:05:24.371Z,32.08
2019-02-06T05:07:52.882Z,23.92
2019-02-06T05:10:21.310Z,28.77
2019-02-06T05:12:49.832Z,29.20
2019-02-06T05:15:18.790Z,25.15
2019-02-06T05:17:47.251Z,29.18
2019-02-06T05:20:21.762Z,34.60
2019-02-06T05:22:50.236Z,27.40
2019-02-06T05:25:18.665Z,28.67
2019-02-06T05:27:47.478Z,23.45
2019-02-06T05:30:16.043Z,23.30
2019-02-06T05:32:45.034Z,23.80
2019-02-06T05:35:13.514Z,26.70
2019-02-06T05:37:41.951Z,29.70
2019-02-06T05:40:11.634Z,32.17
2019-02-06T05:42:40.506Z,30.02
2019-02-06T05:45:10.969Z,33.83
2019-02-06T05:47:39.401Z,30.10
2019-02-06T05:50:13.831Z,25.27
2019-02-06T05:52:42.335Z,42.43
2019-02-06T05:55:11.782Z,30.85
2019-02-06T05:57:40.343Z,24.77
2019-02-06T06:00:14.249Z,29.92
2019-02-06T06:02:42.831Z,30.25
2019-02-06T06:05:11.723Z,33.98
2019-02-06T06:07:45.399Z,32.08
2019-02-06T06:10:13.518Z,36.15
2019-02-06T06:12:42.421Z,37.38
2019-02-06T06:15:12.570Z,29.82
2019-02-06T06:17:41.011Z,28.50
2019-02-06T06:20:12.227Z,31.55
2019-02-06T06:22:40.814Z,29.65
2019-02-06T06:25:12.354Z,29.42
2019-02-06T06:27:41.365Z,23.98
2019-02-06T06:30:12.325Z,30.30
2019-02-06T06:32:40.809Z,33.55
2019-02-06T06:35:11.721Z,23.32
2019-02-06T06:37:41.550Z,31.15
2019-02-06T06:40:13.307Z,37.55
2019-02-06T06:42:42.197Z,32.42
2019-02-06T06:45:13.709Z,30.75
2019-02-06T06:47:42.221Z,33.48
2019-02-06T06:50:13.701Z,29.75
2019-02-06T06:52:42.189Z,31.15
2019-02-06T06:55:12.938Z,37.80
2019-02-06T06:57:41.744Z,26.52
2019-02-06T07:00:22.029Z,36.95
2019-02-06T07:02:50.509Z,27.50
2019-02-06T07:05:19.149Z,27.22
2019-02-06T07:07:47.763Z,26.25
2019-02-06T07:10:17.243Z,28.07
2019-02-06T07:12:45.653Z,32.55
2019-02-06T07:15:19.716Z,35.78
2019-02-06T07:17:48.601Z,32.95
2019-02-06T07:20:19.145Z,32.35
2019-02-06T07:22:47.649Z,33.92
2019-02-06T07:25:18.370Z,27.35
2019-02-06T07:27:46.849Z,35.85
2019-02-06T07:30:29.859Z,27.30
2019-02-06T07:32:58.500Z,34.63
2019-02-06T07:35:27.078Z,26.80
2019-02-06T07:37:56.062Z,28.92
2019-02-06T07:40:24.909Z,32.85
2019-02-06T07:42:53.397Z,29.15
2019-02-06T07:45:21.913Z,30.55
2019-02-06T07:47:50.505Z,30.10
2019-02-06T07:50:24.288Z,32.78
2019-02-06T07:52:52.846Z,27.45
2019-02-06T07:55:21.249Z,29.15
2019-02-06T07:57:49.750Z,30.00
2019-02-06T08:00:18.153Z,23.90
2019-02-06T08:02:46.819Z,26.00
2019-02-06T08:05:19.758Z,30.30
2019-02-06T08:07:48.668Z,31.45
2019-02-06T08:10:23.601Z,32.00
2019-02-06T08:12:52.105Z,30.43
2019-02-06T08:15:21.096Z,28.65
2019-02-06T08:17:49.579Z,27.42
2019-02-06T08:20:22.362Z,31.82
2019-02-06T08:22:51.197Z,34.50
2019-02-06T08:25:21.695Z,28.10
2019-02-06T08:27:50.213Z,31.20
2019-02-06T08:30:36.537Z,34.23
2019-02-06T08:33:05.325Z,31.48
2019-02-06T08:35:34.105Z,29.37
2019-02-06T08:38:02.534Z,30.90
2019-02-06T08:40:32.945Z,25.20
2019-02-06T08:43:01.437Z,29.98
2019-02-06T08:45:29.938Z,27.13
2019-02-06T08:47:58.476Z,31.82
2019-02-06T08:50:27.394Z,32.45
2019-02-06T08:52:56.169Z,38.25
2019-02-06T08:55:32.382Z,31.55
2019-02-06T08:58:01.955Z,28.90
2019-02-06T09:00:33.101Z,38.95
2019-02-06T09:03:02.123Z,33.35
2019-02-06T09:05:30.912Z,32.23
2019-02-06T09:07:59.497Z,31.75
2019-02-06T09:10:30.077Z,35.48
2019-02-06T09:12:59.641Z,35.70
2019-02-06T09:15:29.325Z,35.10
2019-02-06T09:17:57.821Z,29.30
2019-02-06T09:20:27.765Z,39.50
2019-02-06T09:22:57.281Z,35.83
2019-02-06T09:25:27.239Z,32.58
2019-02-06T09:27:56.422Z,33.00
2019-02-06T09:30:27.441Z,32.80
2019-02-06T09:32:56.800Z,32.63
2019-02-06T09:35:25.598Z,28.73
2019-02-06T09:37:54.392Z,28.45
2019-02-06T09:40:25.175Z,23.77
2019-02-06T09:42:53.589Z,24.85
2019-02-06T09:45:22.097Z,33.48
2019-02-06T09:47:50.545Z,29.80
2019-02-06T09:50:21.790Z,32.45
2019-02-06T09:52:50.253Z,33.53
2019-02-06T09:55:18.752Z,29.45
2019-02-06T09:57:47.586Z,35.95
2019-02-06T10:00:21.599Z,27.58
2019-02-06T10:02:50.203Z,33.70
2019-02-06T10:05:19.239Z,31.23
2019-02-06T10:07:47.726Z,34.43
2019-02-06T10:10:18.261Z,34.60
2019-02-06T10:12:46.745Z,33.05
2019-02-06T10:15:18.320Z,39.08
2019-02-06T10:17:46.809Z,38.28
2019-02-06T10:20:17.769Z,35.50
2019-02-06T10:22:46.224Z,31.17
2019-02-06T10:25:15.539Z,35.15
2019-02-06T10:27:43.967Z,37.05
2019-02-06T10:30:18.206Z,30.10
2019-02-06T10:32:46.766Z,31.95
2019-02-06T10:35:15.590Z,28.12
2019-02-06T10:37:44.042Z,33.55
2019-02-06T10:40:12.963Z,30.85
2019-02-06T10:42:41.470Z,31.05
2019-02-06T10:45:20.946Z,34.83
2019-02-06T10:47:48.943Z,27.60
2019-02-06T10:50:29.524Z,40.43
2019-02-06T10:52:58.066Z,28.30
2019-02-06T10:55:26.582Z,41.15
2019-02-06T10:57:55.004Z,30.92
2019-02-06T11:00:29.722Z,26.77
2019-02-06T11:02:57.164Z,28.25
2019-02-06T11:05:25.666Z,36.30
2019-02-06T11:07:54.094Z,35.65
2019-02-06T11:10:24.881Z,32.33
2019-02-06T11:12:53.456Z,31.07
2019-02-06T11:15:22.399Z,33.13
2019-02-06T11:17:51.390Z,32.33
2019-02-06T11:20:22.169Z,34.55
2019-02-06T11:22:50.943Z,31.48
2019-02-06T11:25:19.425Z,29.77
2019-02-06T11:27:47.841Z,27.85
2019-02-06T11:30:24.635Z,31.97
2019-02-06T11:32:53.381Z,24.60
2019-02-06T11:35:21.810Z,28.98
2019-02-06T11:37:50.283Z,32.30
2019-02-06T11:40:21.005Z,26.97
2019-02-06T11:42:49.670Z,30.00
2019-02-06T11:45:26.884Z,24.35
2019-02-06T11:47:55.336Z,25.35
2019-02-06T11:50:25.502Z,29.77
2019-02-06T11:52:54.000Z,24.87
2019-02-06T11:55:30.607Z,29.55
2019-02-06T11:57:59.065Z,33.83
2019-02-06T12:00:48.648Z,33.23
2019-02-06T12:03:17.112Z,26.40
2019-02-06T12:05:45.722Z,27.70
2019-02-06T12:08:14.201Z,28.65
2019-02-06T12:10:42.732Z,30.32
2019-02-06T12:13:11.271Z,34.55
2019-02-06T12:15:39.750Z,29.95
2019-02-06T12:18:08.266Z,32.58
2019-02-06T12:20:37.321Z,38.63
2019-02-06T12:23:05.899Z,33.10
2019-02-06T12:25:34.774Z,32.58
2019-02-06T12:28:05.194Z,33.73
2019-02-06T12:30:41.266Z,30.95
2019-02-06T12:33:09.666Z,39.10
2019-02-06T12:35:38.089Z,31.82
2019-02-06T12:38:06.849Z,32.45
2019-02-06T12:40:35.486Z,24.52
2019-02-06T12:43:06.424Z,35.60
2019-02-06T12:45:35.305Z,33.60
2019-02-06T12:48:04.768Z,33.05
2019-02-06T12:50:33.427Z,33.10
2019-02-06T12:53:01.878Z,37.50
2019-02-06T12:55:35.953Z,32.48
2019-02-06T12:58:05.808Z,35.17
2019-02-06T13:00:37.055Z,35.52
2019-02-06T13:03:06.094Z,42.10
2019-02-06T13:05:34.753Z,34.75
2019-02-06T13:08:03.736Z,33.75
2019-02-06T13:10:34.306Z,34.88
2019-02-06T13:13:03.162Z,35.90
2019-02-06T13:15:32.078Z,40.75
2019-02-06T13:18:00.677Z,48.10
2019-02-06T13:20:34.601Z,42.53
2019-02-06T13:23:03.037Z,38.55
2019-02-06T13:25:31.487Z,34.88
2019-02-06T13:28:00.022Z,41.10
2019-02-06T13:30:38.744Z,44.65
2019-02-06T13:33:08.060Z,44.38
2019-02-06T13:35:38.641Z,41.08
2019-02-06T13:38:07.228Z,40.28
2019-02-06T13:40:45.233Z,47.90
2019-02-06T13:43:06.269Z,47.43
2019-02-06T13:45:37.509Z,40.75
2019-02-06T13:48:06.393Z,39.85
2019-02-06T13:50:34.946Z,35.65
2019-02-06T13:53:03.466Z,45.75
2019-02-06T13:55:31.901Z,40.43
2019-02-06T13:58:00.400Z,42.40
2019-02-06T14:00:34.127Z,45.03
2019-02-06T14:03:02.571Z,34.10
2019-02-06T14:05:32.505Z,38.55
2019-02-06T14:08:03.365Z,47.05
2019-02-06T14:10:32.441Z,42.62
2019-02-06T14:13:01.793Z,39.55
2019-02-06T14:15:33.281Z,44.23
2019-02-06T14:18:01.787Z,44.27
2019-02-06T14:20:31.173Z,40.63
2019-02-06T14:23:03.040Z,41.60
2019-02-06T14:25:57.282Z,42.75
2019-02-06T14:28:45.146Z,42.88
2019-02-06T14:31:31.856Z,45.78
2019-02-06T14:34:15.423Z,44.38
2019-02-06T14:36:58.982Z,44.75
2019-02-06T14:39:33.583Z,48.73
2019-02-06T14:42:08.233Z,46.73
2019-02-06T14:44:48.356Z,43.80
2019-02-06T14:47:41.553Z,43.70
2019-02-06T14:50:15.916Z,46.48
2019-02-06T14:52:59.303Z,48.25
2019-02-06T14:55:31.185Z,46.83
2019-02-06T14:58:05.662Z,39.88
2019-02-06T15:00:43.052Z,41.37
2019-02-06T15:03:26.138Z,48.40
2019-02-06T15:06:09.822Z,43.30
2019-02-06T15:08:56.469Z,41.55
2019-02-06T15:11:44.358Z,44.73
2019-02-06T15:14:24.435Z,42.98
2019-02-06T15:17:24.788Z,31.02
2019-02-06T15:19:56.557Z,38.15
2019-02-06T15:22:30.702Z,41.13
2019-02-06T15:25:14.600Z,38.73
2019-02-06T15:27:56.593Z,39.78
2019-02-06T15:30:36.622Z,38.38
2019-02-06T15:33:23.139Z,36.95
2019-02-06T15:35:58.095Z,43.98
2019-02-06T15:38:50.465Z,36.65
2019-02-06T15:41:42.996Z,47.95
2019-02-06T15:44:23.281Z,35.85
2019-02-06T15:47:06.571Z,40.67
2019-02-06T15:49:53.689Z,35.28
2019-02-06T15:52:33.997Z,44.90
2019-02-06T15:55:25.841Z,48.33
2019-02-06T15:58:12.404Z,43.70
2019-02-06T16:01:01.365Z,43.75
2019-02-06T16:04:08.865Z,49.70
2019-02-06T16:06:59.479Z,42.17
2019-02-06T16:09:46.055Z,44.03
2019-02-06T16:12:32.424Z,34.73
2019-02-06T16:15:22.402Z,38.50
2019-02-06T16:17:56.970Z,39.63
2019-02-06T16:20:31.269Z,37.75
2019-02-06T16:23:27.789Z,41.15
2019-02-06T16:26:08.022Z,54.18
2019-02-06T16:28:48.035Z,48.00
2019-02-06T16:31:39.164Z,47.67
2019-02-06T16:34:36.641Z,48.83
2019-02-06T16:37:22.693Z,43.00
2019-02-06T16:40:13.729Z,52.60
2019-02-06T16:42:50.635Z,38.60
2019-02-06T16:45:31.001Z,40.75
2019-02-06T16:48:14.362Z,41.08
2019-02-06T16:50:51.595Z,38.08
2019-02-06T16:53:49.047Z,41.30
2019-02-06T16:56:35.551Z,44.83
2019-02-06T16:59:34.170Z,47.00
2019-02-06T17:02:08.577Z,42.20
2019-02-06T17:04:42.899Z,39.83
2019-02-06T17:07:19.721Z,43.50
2019-02-06T17:10:08.052Z,46.83
2019-02-06T17:12:59.289Z,44.77
2019-02-06T17:15:48.581Z,44.45
2019-02-06T17:18:28.943Z,45.78
2019-02-06T17:21:03.355Z,43.58
2019-02-06T17:23:40.874Z,49.03
2019-02-06T17:26:35.286Z,43.87
2019-02-06T17:29:12.042Z,55.55
2019-02-06T17:31:58.614Z,58.65
2019-02-06T17:34:38.927Z,54.48
2019-02-06T17:37:29.891Z,60.80
2019-02-06T17:40:01.445Z,52.03
2019-02-06T17:42:52.353Z,49.67
2019-02-06T17:45:41.780Z,52.53
2019-02-06T17:48:13.287Z,52.45
2019-02-06T17:50:50.626Z,50.15
2019-02-06T17:53:28.274Z,57.13
2019-02-06T17:55:56.781Z,47.45
2019-02-06T17:58:25.770Z,46.28
2019-02-06T18:00:58.554Z,46.83
2019-02-06T18:03:27.630Z,58.80
2019-02-06T18:05:56.058Z,54.00
2019-02-06T18:08:24.482Z,55.63
2019-02-06T18:10:53.185Z,66.72
2019-02-06T18:13:21.665Z,57.78
2019-02-06T18:16:09.441Z,65.45
2019-02-06T18:18:37.870Z,60.38
2019-02-06T18:21:06.413Z,65.10
2019-02-06T18:23:34.883Z,69.20
2019-02-06T18:26:03.452Z,67.22
2019-02-06T18:28:32.038Z,61.53
2019-02-06T18:31:00.601Z,65.30
2019-02-06T18:33:30.193Z,61.33
2019-02-06T18:35:58.700Z,72.45
2019-02-06T18:38:27.105Z,69.10
2019-02-06T18:40:55.852Z,57.23
2019-02-06T18:43:24.333Z,65.57
2019-02-06T18:45:52.826Z,59.15
2019-02-06T18:48:23.451Z,48.33
2019-02-06T18:50:52.024Z,44.93
2019-02-06T18:53:20.449Z,54.65
2019-02-06T18:55:51.242Z,43.70
2019-02-06T18:58:19.453Z,54.63
2019-02-06T19:00:47.961Z,54.30
2019-02-06T19:03:19.694Z,45.75
2019-02-06T19:05:49.117Z,51.15
2019-02-06T19:08:17.598Z,51.80
2019-02-06T19:10:46.557Z,48.65
2019-02-06T19:13:15.240Z,55.30
2019-02-06T19:15:43.883Z,56.00
2019-02-06T19:18:12.829Z,56.92
2019-02-06T19:20:41.257Z,50.05
2019-02-06T19:23:09.672Z,56.28
2019-02-06T19:25:38.194Z,60.17
2019-02-06T19:28:06.657Z,54.60
2019-02-06T19:30:41.003Z,46.08
2019-02-06T19:33:10.118Z,47.53
2019-02-06T19:35:38.558Z,51.23
2019-02-06T19:38:07.518Z,44.18
2019-02-06T19:40:36.039Z,48.20
2019-02-06T19:43:05.244Z,40.17
2019-02-06T19:45:33.819Z,48.05
2019-02-06T19:48:02.313Z,52.13
2019-02-06T19:50:36.902Z,54.50
2019-02-06T19:53:05.382Z,47.10
2019-02-06T19:55:33.882Z,52.45
2019-02-06T19:58:02.382Z,48.55
2019-02-06T20:00:32.787Z,54.10
2019-02-06T20:03:20.766Z,53.83
2019-02-06T20:05:49.336Z,46.23
2019-02-06T20:08:17.777Z,40.60
2019-02-06T20:10:49.134Z,47.83
2019-02-06T20:13:17.694Z,48.35
2019-02-06T20:15:46.218Z,50.20
2019-02-06T20:18:14.999Z,41.58
2019-02-06T20:20:43.508Z,48.10
2019-02-06T20:23:11.994Z,37.65
2019-02-06T20:25:40.390Z,46.28
2019-02-06T20:28:08.972Z,43.10
2019-02-06T20:30:37.465Z,43.28
2019-02-06T20:33:05.954Z,51.70
2019-02-06T20:35:34.774Z,41.90
2019-02-06T20:38:03.270Z,41.73
2019-02-06T20:40:40.101Z,38.40
2019-02-06T20:43:08.589Z,41.88
2019-02-06T20:45:37.154Z,40.92
2019-02-06T20:48:05.712Z,39.35
2019-02-06T20:50:36.528Z,42.65
2019-02-06T20:53:05.462Z,42.55
2019-02-06T20:55:33.976Z,50.63
2019-02-06T20:58:02.482Z,50.28
2019-02-06T21:00:33.156Z,46.25
2019-02-06T21:03:01.595Z,41.58
2019-02-06T21:05:30.217Z,45.83
2019-02-06T21:07:59.109Z,43.90
2019-02-06T21:10:32.206Z,55.88
2019-02-06T21:13:00.705Z,51.08
2019-02-06T21:15:29.790Z,51.48
2019-02-06T21:17:59.357Z,46.00
2019-02-06T21:20:27.788Z,50.83
2019-02-06T21:22:58.289Z,45.63
2019-02-06T21:25:27.265Z,51.77
2019-02-06T21:27:55.790Z,47.17
2019-02-06T21:30:26.249Z,50.12
2019-02-06T21:32:54.841Z,53.70
2019-02-06T21:35:23.337Z,53.00
2019-02-06T21:37:51.763Z,46.45
2019-02-06T21:40:22.800Z,44.90
2019-02-06T21:42:51.426Z,53.00
2019-02-06T21:45:20.200Z,38.65
2019-02-06T21:47:48.642Z,60.70
2019-02-06T21:50:19.166Z,48.45
2019-02-06T21:52:47.600Z,49.90
2019-02-06T21:55:19.126Z,66.57
2019-02-06T21:57:47.569Z,70.70
2019-02-06T22:00:18.853Z,58.65
2019-02-06T22:02:47.339Z,62.88
2019-02-06T22:05:16.106Z,55.08
2019-02-06T22:07:44.599Z,52.93
2019-02-06T22:10:18.514Z,52.43
2019-02-06T22:12:46.937Z,47.20
2019-02-06T22:15:18.076Z,47.55
2019-02-06T22:17:46.572Z,55.25
2019-02-06T22:20:15.854Z,57.10
2019-02-06T22:22:44.937Z,59.03
2019-02-06T22:25:13.562Z,52.60
2019-02-06T22:27:42.043Z,56.13
2019-02-06T22:30:18.683Z,50.90
2019-02-06T22:32:47.215Z,60.95
2019-02-06T22:35:15.988Z,48.35
2019-02-06T22:37:44.854Z,45.25
2019-02-06T22:40:15.779Z,47.88
2019-02-06T22:42:44.265Z,48.75
2019-02-06T22:45:15.902Z,52.60
2019-02-06T22:47:44.592Z,42.33
2019-02-06T22:50:18.809Z,41.20
2019-02-06T22:52:47.387Z,56.10
2019-02-06T22:55:16.994Z,48.28
2019-02-06T22:57:45.399Z,57.58
2019-02-06T23:00:33.031Z,54.67
2019-02-06T23:03:01.447Z,44.48
2019-02-06T23:05:29.938Z,45.12
2019-02-06T23:07:58.655Z,46.33
2019-02-06T23:10:27.168Z,45.70
2019-02-06T23:12:55.612Z,40.15
2019-02-06T23:15:24.032Z,46.23
2019-02-06T23:17:53.089Z,50.85
2019-02-06T23:20:21.509Z,48.68
2019-02-06T23:22:49.951Z,46.15
2019-02-06T23:25:18.377Z,43.92
2019-02-06T23:27:46.800Z,43.35
2019-02-06T23:30:16.365Z,34.53
2019-02-06T23:32:45.247Z,43.85
2019-02-06T23:35:13.937Z,47.83
2019-02-06T23:37:42.429Z,33.85
2019-02-06T23:40:15.840Z,41.45
2019-02-06T23:42:44.339Z,43.15
2019-02-06T23:45:13.350Z,40.17
2019-02-06T23:47:42.245Z,37.73
2019-02-06T23:50:15.277Z,43.08
2019-02-06T23:52:44.010Z,35.20
2019-02-06T23:55:12.609Z,39.30
2019-02-06T23:57:41.011Z,31.65
